createdAt,value
2023-04-15T00:00:27.430Z,0.80
2023-04-15T00:01:27.432Z,0.80
2023-04-15T00:02:27.552Z,0.78
2023-04-15T00:03:27.553Z,0.79
2023-04-15T00:04:27.514Z,0.80
2023-04-15T00:05:27.407Z,0.81
2023-04-15T00:06:27.417Z,0.80
2023-04-15T00:07:27.415Z,0.80
2023-04-15T00:08:27.418Z,0.79
2023-04-15T00:09:27.392Z,0.79
2023-04-15T00:10:27.362Z,0.79
2023-04-15T00:11:27.340Z,0.79
2023-04-15T00:12:27.358Z,0.78
2023-04-15T00:13:27.346Z,0.79
2023-04-15T00:14:27.322Z,0.81
2023-04-15T00:15:27.341Z,0.80
2023-04-15T00:16:27.366Z,0.79
2023-04-15T00:17:27.323Z,0.78
2023-04-15T00:18:27.352Z,0.79
2023-04-15T00:19:27.290Z,0.80
2023-04-15T00:20:27.422Z,0.80
2023-04-15T00:21:27.260Z,0.80
2023-04-15T00:22:27.274Z,0.80
2023-04-15T00:23:27.279Z,0.80
2023-04-15T00:24:27.255Z,0.79
2023-04-15T00:25:27.305Z,0.79
2023-04-15T00:26:27.245Z,0.79
2023-04-15T00:27:27.256Z,0.80
2023-04-15T00:28:27.280Z,0.80
2023-04-15T00:29:27.267Z,0.81
2023-04-15T00:30:27.224Z,0.81
2023-04-15T00:31:27.294Z,0.80
2023-04-15T00:32:27.253Z,0.80
2023-04-15T00:33:27.191Z,0.80
2023-04-15T00:34:27.202Z,0.81
2023-04-15T00:35:27.206Z,0.81
2023-04-15T00:36:27.196Z,0.79
2023-04-15T00:37:27.237Z,0.80
2023-04-15T00:38:27.317Z,0.80
2023-04-15T00:39:27.345Z,0.80
2023-04-15T00:40:27.505Z,0.81
2023-04-15T00:41:27.460Z,0.79
2023-04-15T00:42:27.577Z,0.80
2023-04-15T00:43:27.601Z,0.79
2023-04-15T00:44:27.624Z,0.79
2023-04-15T00:45:27.699Z,0.79
2023-04-15T00:46:27.850Z,0.80
2023-04-15T00:47:27.936Z,0.79
2023-04-15T00:48:28.011Z,0.80
2023-04-15T00:49:27.985Z,0.80
2023-04-15T00:50:27.982Z,0.79
2023-04-15T00:51:28.094Z,0.81
2023-04-15T00:52:28.099Z,0.81
2023-04-15T00:53:28.206Z,0.80
2023-04-15T00:54:28.208Z,0.79
2023-04-15T00:55:28.284Z,0.80
2023-04-15T00:56:28.367Z,0.81
2023-04-15T00:57:28.444Z,0.80
2023-04-15T00:58:28.478Z,0.80
2023-04-15T00:59:28.508Z,0.79
2023-04-15T01:00:28.673Z,0.79
2023-04-15T01:01:28.734Z,0.80
2023-04-15T01:02:28.906Z,0.79
2023-04-15T01:03:28.849Z,0.80
2023-04-15T01:04:29.015Z,0.81
2023-04-15T01:05:29.000Z,0.80
2023-04-15T01:06:28.962Z,0.80
2023-04-15T01:07:29.071Z,0.80
2023-04-15T01:08:29.093Z,0.79
2023-04-15T01:09:29.191Z,0.78
2023-04-15T01:10:29.283Z,0.78
2023-04-15T01:11:29.280Z,0.79
2023-04-15T01:12:29.355Z,0.79
2023-04-15T01:13:29.423Z,0.81
2023-04-15T01:14:29.914Z,0.81
2023-04-15T01:15:29.552Z,0.81
2023-04-15T01:16:29.753Z,0.80
2023-04-15T01:17:29.843Z,0.81
2023-04-15T01:18:29.736Z,0.80
2023-04-15T01:19:29.800Z,0.80
2023-04-15T01:20:29.862Z,0.80
2023-04-15T01:21:29.993Z,0.79
2023-04-15T01:22:30.071Z,0.79
2023-04-15T01:23:30.037Z,0.80
2023-04-15T01:24:30.143Z,0.80
2023-04-15T01:25:30.256Z,0.80
2023-04-15T01:26:30.267Z,0.80
2023-04-15T01:27:30.316Z,0.80
2023-04-15T01:28:30.358Z,0.81
2023-04-15T01:29:30.502Z,0.81
2023-04-15T01:30:30.543Z,0.79
2023-04-15T01:31:30.565Z,0.80
2023-04-15T01:32:30.694Z,0.81
2023-04-15T01:33:30.663Z,0.81
2023-04-15T01:34:30.766Z,0.79
2023-04-15T01:35:30.805Z,0.80
2023-04-15T01:36:30.958Z,0.81
2023-04-15T01:37:30.968Z,0.80
2023-04-15T01:38:31.011Z,0.81
2023-04-15T01:39:31.078Z,0.79
2023-04-15T01:40:31.129Z,0.79
2023-04-15T01:41:31.203Z,0.81
2023-04-15T01:42:31.247Z,0.79
2023-04-15T01:43:31.357Z,0.81
2023-04-15T01:44:31.353Z,0.80
2023-04-15T01:45:31.429Z,0.81
2023-04-15T01:46:31.491Z,0.82
2023-04-15T01:47:31.548Z,0.80
2023-04-15T01:48:31.586Z,0.82
2023-04-15T01:49:31.648Z,0.80
2023-04-15T01:50:31.706Z,0.80
2023-04-15T01:51:31.732Z,0.79
2023-04-15T01:52:31.930Z,0.81
2023-04-15T01:53:31.856Z,0.79
2023-04-15T01:54:31.882Z,0.82
2023-04-15T01:55:31.975Z,0.79
2023-04-15T01:56:32.061Z,0.81
2023-04-15T01:57:32.089Z,0.81
2023-04-15T01:58:32.171Z,0.80
2023-04-15T01:59:32.325Z,0.80
2023-04-15T02:00:32.231Z,0.81
2023-04-15T02:01:32.316Z,0.81
2023-04-15T02:02:32.440Z,0.81
2023-04-15T02:03:32.519Z,0.81
2023-04-15T02:04:32.417Z,0.80
2023-04-15T02:05:32.493Z,0.82
2023-04-15T02:06:32.536Z,0.79
2023-04-15T02:07:32.600Z,0.81
2023-04-15T02:08:32.617Z,0.80
2023-04-15T02:09:32.617Z,0.82
2023-04-15T02:10:32.678Z,0.80
2023-04-15T02:11:32.788Z,0.81
2023-04-15T02:12:32.781Z,0.80
2023-04-15T02:13:32.850Z,0.81
2023-04-15T02:14:32.854Z,0.80
2023-04-15T02:15:32.956Z,0.80
2023-04-15T02:16:33.044Z,0.80
2023-04-15T02:17:33.047Z,0.79
2023-04-15T02:18:33.023Z,0.81
2023-04-15T02:19:33.095Z,0.80
2023-04-15T02:20:33.162Z,0.80
2023-04-15T02:21:33.143Z,0.79
2023-04-15T02:22:33.153Z,0.79
2023-04-15T02:23:33.336Z,0.81
2023-04-15T02:24:33.195Z,0.79
2023-04-15T02:25:33.239Z,0.80
2023-04-15T02:26:33.217Z,0.81
2023-04-15T02:27:33.217Z,0.80
2023-04-15T02:28:33.301Z,0.80
2023-04-15T02:29:33.402Z,0.81
2023-04-15T02:30:33.334Z,0.81
2023-04-15T02:31:33.445Z,0.82
2023-04-15T02:32:33.468Z,0.80
2023-04-15T02:33:33.490Z,0.81
2023-04-15T02:34:33.444Z,0.81
2023-04-15T02:35:33.485Z,0.82
2023-04-15T02:36:33.522Z,0.80
2023-04-15T02:37:33.620Z,0.82
2023-04-15T02:38:33.528Z,0.82
2023-04-15T02:39:33.631Z,0.81
2023-04-15T02:40:33.601Z,0.78
2023-04-15T02:41:33.692Z,0.81
2023-04-15T02:42:33.660Z,0.79
2023-04-15T02:43:33.728Z,0.82
2023-04-15T02:44:33.711Z,0.82
2023-04-15T02:45:33.728Z,0.80
2023-04-15T02:46:33.728Z,0.82
2023-04-15T02:47:33.819Z,0.81
2023-04-15T02:48:33.844Z,0.80
2023-04-15T02:49:33.857Z,0.81
2023-04-15T02:50:33.909Z,0.82
2023-04-15T02:51:33.986Z,0.82
2023-04-15T02:52:33.996Z,0.81
2023-04-15T02:53:34.045Z,0.80
2023-04-15T02:54:34.105Z,0.81
2023-04-15T02:55:34.141Z,0.82
2023-04-15T02:56:34.245Z,0.82
2023-04-15T02:57:34.278Z,0.81
2023-04-15T02:58:34.271Z,0.81
2023-04-15T02:59:34.330Z,0.80
2023-04-15T03:00:34.402Z,0.82
2023-04-15T03:01:34.474Z,0.82
2023-04-15T03:02:34.530Z,0.81
2023-04-15T03:03:34.562Z,0.81
2023-04-15T03:04:34.461Z,0.81
2023-04-15T03:05:34.467Z,0.81
2023-04-15T03:06:34.543Z,0.82
2023-04-15T03:07:34.506Z,0.80
2023-04-15T03:08:34.543Z,0.82
2023-04-15T03:09:34.604Z,0.80
2023-04-15T03:10:34.609Z,0.80
2023-04-15T03:11:36.413Z,0.81
2023-04-15T03:12:34.679Z,0.81
2023-04-15T03:13:34.696Z,0.80
2023-04-15T03:14:34.697Z,0.81
2023-04-15T03:15:34.741Z,0.82
2023-04-15T03:16:34.757Z,0.81
2023-04-15T03:17:34.896Z,0.81
2023-04-15T03:18:34.760Z,0.83
2023-04-15T03:19:34.763Z,0.81
2023-04-15T03:20:34.828Z,0.81
2023-04-15T03:21:34.955Z,0.81
2023-04-15T03:22:34.805Z,0.82
2023-04-15T03:23:34.902Z,0.82
2023-04-15T03:24:34.794Z,0.82
2023-04-15T03:25:34.801Z,0.81
2023-04-15T03:26:34.837Z,0.82
2023-04-15T03:27:34.880Z,0.83
2023-04-15T03:28:34.937Z,0.81
2023-04-15T03:29:34.945Z,0.81
2023-04-15T03:30:34.954Z,0.82
2023-04-15T03:31:35.107Z,0.82
2023-04-15T03:32:34.933Z,0.81
2023-04-15T03:33:34.923Z,0.80
2023-04-15T03:34:34.923Z,0.80
2023-04-15T03:35:34.985Z,0.83
2023-04-15T03:36:34.991Z,0.82
2023-04-15T03:37:34.992Z,0.83
2023-04-15T03:38:34.952Z,0.81
2023-04-15T03:39:35.007Z,0.82
2023-04-15T03:40:35.114Z,0.79
2023-04-15T03:41:35.074Z,0.81
2023-04-15T03:42:35.022Z,0.83
2023-04-15T03:43:35.047Z,0.83
2023-04-15T03:44:35.055Z,0.80
2023-04-15T03:45:35.048Z,0.82
2023-04-15T03:46:35.133Z,0.82
2023-04-15T03:47:35.122Z,0.81
2023-04-15T03:48:35.067Z,0.81
2023-04-15T03:49:35.070Z,0.81
2023-04-15T03:50:35.044Z,0.81
2023-04-15T03:51:35.061Z,0.81
2023-04-15T03:52:35.065Z,0.81
2023-04-15T03:53:35.059Z,0.81
2023-04-15T03:54:35.075Z,0.80
2023-04-15T03:55:35.006Z,0.82
2023-04-15T03:56:35.020Z,0.80
2023-04-15T03:57:35.045Z,0.80
2023-04-15T03:58:35.052Z,0.81
2023-04-15T03:59:35.103Z,0.81
2023-04-15T04:00:35.009Z,0.80
2023-04-15T04:01:35.042Z,0.80
2023-04-15T04:02:35.114Z,0.79
2023-04-15T04:03:35.165Z,0.79
2023-04-15T04:04:35.169Z,0.80
2023-04-15T04:05:35.038Z,0.81
2023-04-15T04:06:35.018Z,0.80
2023-04-15T04:07:35.061Z,0.81
2023-04-15T04:08:35.052Z,0.82
2023-04-15T04:09:35.018Z,0.79
2023-04-15T04:10:35.021Z,0.80
2023-04-15T04:11:35.019Z,0.79
2023-04-15T04:12:35.021Z,0.80
2023-04-15T04:13:35.186Z,0.78
2023-04-15T04:14:35.066Z,0.80
2023-04-15T04:15:35.059Z,0.79
2023-04-15T04:16:35.077Z,0.80
2023-04-15T04:17:35.056Z,0.79
2023-04-15T04:18:35.039Z,0.79
2023-04-15T04:19:35.038Z,0.78
2023-04-15T04:20:35.031Z,0.77
2023-04-15T04:21:34.988Z,0.78
2023-04-15T04:22:35.042Z,0.78
2023-04-15T04:23:35.020Z,0.78
2023-04-15T04:24:35.020Z,0.77
2023-04-15T04:25:36.033Z,0.79
2023-04-15T04:26:35.013Z,0.78
2023-04-15T04:27:34.995Z,0.78
2023-04-15T04:28:34.998Z,0.78
2023-04-15T04:29:35.015Z,0.76
2023-04-15T04:30:35.005Z,0.76
2023-04-15T04:31:35.189Z,0.77
2023-04-15T04:32:35.009Z,0.76
2023-04-15T04:33:35.178Z,0.77
2023-04-15T04:34:34.972Z,0.77
2023-04-15T04:35:34.963Z,0.76
2023-04-15T04:36:34.979Z,0.76
2023-04-15T04:37:35.051Z,0.77
2023-04-15T04:38:34.997Z,0.76
2023-04-15T04:39:35.003Z,0.76
2023-04-15T04:40:35.005Z,0.75
2023-04-15T04:41:34.981Z,0.76
2023-04-15T04:42:35.692Z,0.73
2023-04-15T04:43:35.104Z,0.76
2023-04-15T04:44:34.969Z,0.74
2023-04-15T04:45:34.980Z,0.75
2023-04-15T04:46:35.017Z,0.75
2023-04-15T04:47:35.103Z,0.75
2023-04-15T04:48:34.956Z,0.73
2023-04-15T04:49:34.988Z,0.76
2023-04-15T04:50:34.942Z,0.74
2023-04-15T04:51:34.932Z,0.74
2023-04-15T04:52:34.932Z,0.74
2023-04-15T04:53:34.931Z,0.74
2023-04-15T04:54:34.964Z,0.74
2023-04-15T04:55:34.930Z,0.71
2023-04-15T04:56:35.018Z,0.73
2023-04-15T04:57:34.918Z,0.73
2023-04-15T04:58:34.943Z,0.72
2023-04-15T04:59:34.926Z,0.73
2023-04-15T05:00:34.918Z,0.72
2023-04-15T05:01:34.995Z,0.72
2023-04-15T05:02:35.039Z,0.72
2023-04-15T05:03:35.057Z,0.73
2023-04-15T05:04:34.974Z,0.72
2023-04-15T05:05:35.039Z,0.71
2023-04-15T05:06:34.988Z,0.70
2023-04-15T05:07:34.989Z,0.71
2023-04-15T05:08:34.999Z,0.71
2023-04-15T05:09:35.003Z,0.69
2023-04-15T05:10:35.015Z,0.70
2023-04-15T05:11:35.017Z,0.69
2023-04-15T05:12:34.976Z,0.69
2023-04-15T05:13:34.977Z,0.70
2023-04-15T05:14:35.064Z,0.70
2023-04-15T05:15:35.069Z,0.67
2023-04-15T05:16:35.016Z,0.69
2023-04-15T05:17:35.015Z,0.70
2023-04-15T05:18:35.016Z,0.69
2023-04-15T05:19:35.044Z,0.69
2023-04-15T05:20:35.009Z,0.70
2023-04-15T05:21:35.321Z,0.67
2023-04-15T05:22:34.989Z,0.68
2023-04-15T05:23:35.004Z,0.68
2023-04-15T05:24:35.465Z,0.69
2023-04-15T05:25:34.976Z,0.68
2023-04-15T05:26:34.960Z,0.68
2023-04-15T05:27:34.927Z,0.67
2023-04-15T05:28:35.059Z,0.67
2023-04-15T05:29:34.995Z,0.68
2023-04-15T05:30:34.939Z,0.69
2023-04-15T05:31:35.099Z,0.67
2023-04-15T05:32:35.011Z,0.66
2023-04-15T05:33:35.044Z,0.68
2023-04-15T05:34:35.030Z,0.65
2023-04-15T05:35:34.989Z,0.66
2023-04-15T05:36:34.980Z,0.66
2023-04-15T05:37:35.025Z,0.66
2023-04-15T05:38:35.164Z,0.67
2023-04-15T05:39:34.972Z,0.66
2023-04-15T05:40:35.023Z,0.66
2023-04-15T05:41:34.970Z,0.64
2023-04-15T05:42:34.980Z,0.65
2023-04-15T05:43:35.011Z,0.65
2023-04-15T05:44:35.003Z,0.64
2023-04-15T05:45:34.999Z,0.65
2023-04-15T05:46:35.163Z,0.64
2023-04-15T05:47:35.056Z,0.63
2023-04-15T05:48:34.966Z,0.64
2023-04-15T05:49:35.038Z,0.64
2023-04-15T05:50:34.999Z,0.65
2023-04-15T05:51:34.979Z,0.64
2023-04-15T05:52:34.986Z,0.62
2023-04-15T05:53:35.005Z,0.62
2023-04-15T05:54:34.958Z,0.62
2023-04-15T05:55:35.087Z,0.63
2023-04-15T05:56:35.027Z,0.63
2023-04-15T05:57:34.986Z,0.63
2023-04-15T05:58:35.086Z,0.62
2023-04-15T05:59:34.996Z,0.62
2023-04-15T06:00:34.983Z,0.62
2023-04-15T06:01:34.960Z,0.62
2023-04-15T06:02:35.141Z,0.62
2023-04-15T06:03:35.066Z,0.62
2023-04-15T06:04:35.124Z,0.60
2023-04-15T06:05:34.981Z,0.60
2023-04-15T06:06:34.934Z,0.62
2023-04-15T06:07:35.051Z,0.62
2023-04-15T06:08:34.892Z,0.60
2023-04-15T06:09:35.022Z,0.60
2023-04-15T06:10:34.915Z,0.61
2023-04-15T06:11:34.965Z,0.61
2023-04-15T06:12:34.980Z,0.61
2023-04-15T06:13:34.949Z,0.60
2023-04-15T06:14:34.939Z,0.60
2023-04-15T06:15:34.958Z,0.60
2023-04-15T06:16:35.047Z,0.59
2023-04-15T06:17:34.988Z,0.60
2023-04-15T06:18:35.034Z,0.61
2023-04-15T06:19:34.938Z,0.58
2023-04-15T06:20:34.929Z,0.58
2023-04-15T06:21:34.930Z,0.60
2023-04-15T06:22:34.889Z,0.59
2023-04-15T06:23:34.940Z,0.58
2023-04-15T06:24:34.922Z,0.58
2023-04-15T06:25:34.961Z,0.58
2023-04-15T06:26:34.917Z,0.59
2023-04-15T06:27:34.899Z,0.58
2023-04-15T06:28:34.945Z,0.58
2023-04-15T06:29:34.944Z,0.59
2023-04-15T06:30:34.959Z,0.58
2023-04-15T06:31:35.033Z,0.58
2023-04-15T06:32:34.945Z,0.58
2023-04-15T06:33:34.917Z,0.57
2023-04-15T06:34:34.916Z,0.57
2023-04-15T06:35:34.890Z,0.58
2023-04-15T06:36:34.940Z,0.57
2023-04-15T06:37:34.944Z,0.58
2023-04-15T06:38:34.901Z,0.56
2023-04-15T06:39:34.913Z,0.58
2023-04-15T06:40:34.878Z,0.58
2023-04-15T06:41:34.863Z,0.57
2023-04-15T06:42:34.860Z,0.57
2023-04-15T06:43:34.884Z,0.57
2023-04-15T06:44:34.894Z,0.56
2023-04-15T06:45:34.906Z,0.57
2023-04-15T06:46:35.061Z,0.56
2023-04-15T06:47:34.883Z,0.56
2023-04-15T06:48:34.832Z,0.54
2023-04-15T06:49:34.818Z,0.57
2023-04-15T06:50:34.853Z,0.56
2023-04-15T06:51:34.814Z,0.56
2023-04-15T06:52:34.846Z,0.56
2023-04-15T06:53:35.008Z,0.56
2023-04-15T06:54:34.842Z,0.54
2023-04-15T06:55:34.834Z,0.54
2023-04-15T06:56:34.818Z,0.54
2023-04-15T06:57:35.149Z,0.56
2023-04-15T06:58:34.803Z,0.54
2023-04-15T06:59:34.838Z,0.52
2023-04-15T07:00:34.810Z,0.55
2023-04-15T07:01:34.884Z,0.55
2023-04-15T07:02:34.895Z,0.54
2023-04-15T07:03:34.874Z,0.55
2023-04-15T07:04:34.873Z,0.54
2023-04-15T07:05:34.802Z,0.53
2023-04-15T07:06:34.856Z,0.53
2023-04-15T07:07:34.840Z,0.53
2023-04-15T07:08:35.035Z,0.52
2023-04-15T07:09:35.026Z,0.52
2023-04-15T07:10:34.907Z,0.53
2023-04-15T07:11:34.931Z,0.51
2023-04-15T07:12:34.956Z,0.53
2023-04-15T07:13:34.955Z,0.52
2023-04-15T07:14:34.967Z,0.52
2023-04-15T07:15:34.969Z,0.52
2023-04-15T07:16:35.090Z,0.52
2023-04-15T07:17:35.082Z,0.51
2023-04-15T07:18:35.022Z,0.52
2023-04-15T07:19:35.072Z,0.53
2023-04-15T07:20:35.032Z,0.52
2023-04-15T07:21:35.140Z,0.50
2023-04-15T07:22:35.122Z,0.53
2023-04-15T07:23:35.504Z,0.52
2023-04-15T07:24:35.164Z,0.52
2023-04-15T07:25:35.216Z,0.53
2023-04-15T07:26:35.435Z,0.51
2023-04-15T07:27:35.355Z,0.51
2023-04-15T07:28:35.490Z,0.51
2023-04-15T07:29:35.448Z,0.52
2023-04-15T07:30:35.502Z,0.52
2023-04-15T07:31:35.539Z,0.52
2023-04-15T07:32:35.563Z,0.51
2023-04-15T07:33:35.585Z,0.50
2023-04-15T07:34:35.616Z,0.51
2023-04-15T07:35:35.682Z,0.50
2023-04-15T07:36:35.750Z,0.50
2023-04-15T07:37:35.784Z,0.51
2023-04-15T07:38:35.888Z,0.51
2023-04-15T07:39:36.079Z,0.51
2023-04-15T07:40:35.929Z,0.51
2023-04-15T07:41:35.975Z,0.50
2023-04-15T07:42:36.061Z,0.50
2023-04-15T07:43:36.089Z,0.50
2023-04-15T07:44:36.168Z,0.51
2023-04-15T07:45:36.250Z,0.51
2023-04-15T07:46:36.325Z,0.51
2023-04-15T07:47:36.415Z,0.51
2023-04-15T07:48:37.547Z,0.51
2023-04-15T07:49:36.517Z,0.51
2023-04-15T07:50:36.573Z,0.51
2023-04-15T07:51:36.616Z,0.51
2023-04-15T07:52:36.667Z,0.51
2023-04-15T07:53:36.734Z,0.52
2023-04-15T07:54:36.799Z,0.51
2023-04-15T07:55:36.867Z,0.52
2023-04-15T07:56:37.028Z,0.51
2023-04-15T07:57:37.016Z,0.52
2023-04-15T07:58:37.046Z,0.51
2023-04-15T07:59:37.108Z,0.51
2023-04-15T08:00:37.164Z,0.50
2023-04-15T08:01:37.258Z,0.51
2023-04-15T08:02:39.679Z,0.51
2023-04-15T08:03:37.405Z,0.52
2023-04-15T08:04:37.382Z,0.52
2023-04-15T08:05:37.276Z,0.51
2023-04-15T08:06:37.269Z,0.50
2023-04-15T08:07:37.241Z,0.50
2023-04-15T08:08:37.294Z,0.51
2023-04-15T08:09:37.271Z,0.51
2023-04-15T08:10:37.271Z,0.51
2023-04-15T08:11:37.241Z,0.50
2023-04-15T08:12:37.280Z,0.51
2023-04-15T08:13:37.214Z,0.52
2023-04-15T08:14:37.261Z,0.52
2023-04-15T08:15:37.194Z,0.51
2023-04-15T08:16:37.331Z,0.50
2023-04-15T08:17:37.234Z,0.51
2023-04-15T08:18:37.188Z,0.51
2023-04-15T08:19:37.184Z,0.52
2023-04-15T08:20:37.159Z,0.53
2023-04-15T08:21:37.178Z,0.51
2023-04-15T08:22:37.149Z,0.52
2023-04-15T08:23:37.163Z,0.53
2023-04-15T08:24:37.151Z,0.51
2023-04-15T08:25:37.135Z,0.51
2023-04-15T08:26:37.134Z,0.52
2023-04-15T08:27:37.102Z,0.52
2023-04-15T08:28:37.107Z,0.52
2023-04-15T08:29:37.189Z,0.52
2023-04-15T08:30:37.093Z,0.52
2023-04-15T08:31:37.141Z,0.52
2023-04-15T08:32:37.290Z,0.53
2023-04-15T08:33:37.295Z,0.53
2023-04-15T08:34:37.298Z,0.52
2023-04-15T08:35:37.332Z,0.54
2023-04-15T08:36:37.399Z,0.53
2023-04-15T08:37:37.462Z,0.52
2023-04-15T08:38:37.453Z,0.53
2023-04-15T08:39:37.513Z,0.53
2023-04-15T08:40:37.546Z,0.53
2023-04-15T08:41:37.847Z,0.55
2023-04-15T08:42:37.648Z,0.54
2023-04-15T08:43:37.657Z,0.54
2023-04-15T08:44:37.701Z,0.53
2023-04-15T08:45:37.784Z,0.53
2023-04-15T08:46:37.811Z,0.53
2023-04-15T08:47:37.831Z,0.55
2023-04-15T08:48:37.884Z,0.54
2023-04-15T08:49:37.887Z,0.52
2023-04-15T08:50:37.972Z,0.54
2023-04-15T08:51:38.060Z,0.53
2023-04-15T08:52:38.034Z,0.54
2023-04-15T08:53:38.079Z,0.53
2023-04-15T08:54:38.078Z,0.52
2023-04-15T08:55:38.129Z,0.52
2023-04-15T08:56:38.267Z,0.52
2023-04-15T08:57:38.214Z,0.51
2023-04-15T08:58:38.232Z,0.53
2023-04-15T08:59:38.267Z,0.53
2023-04-15T09:00:38.281Z,0.52
2023-04-15T09:01:38.534Z,0.53
2023-04-15T09:02:38.583Z,0.53
2023-04-15T09:03:38.478Z,0.52
2023-04-15T09:04:38.562Z,0.51
2023-04-15T09:05:38.471Z,0.51
2023-04-15T09:06:38.551Z,0.53
2023-04-15T09:07:38.525Z,0.51
2023-04-15T09:08:38.587Z,0.53
2023-04-15T09:09:38.589Z,0.52
2023-04-15T09:10:38.622Z,0.53
2023-04-15T09:11:38.643Z,0.53
2023-04-15T09:12:38.692Z,0.54
2023-04-15T09:13:38.733Z,0.51
2023-04-15T09:14:38.740Z,0.52
2023-04-15T09:15:38.794Z,0.53
2023-04-15T09:16:38.813Z,0.53
2023-04-15T09:17:38.844Z,0.52
2023-04-15T09:18:38.871Z,0.52
2023-04-15T09:19:38.899Z,0.52
2023-04-15T09:20:38.869Z,0.52
2023-04-15T09:21:38.942Z,0.52
2023-04-15T09:22:38.946Z,0.52
2023-04-15T09:23:38.994Z,0.51
2023-04-15T09:24:39.000Z,0.50
2023-04-15T09:25:39.000Z,0.52
2023-04-15T09:26:39.065Z,0.51
2023-04-15T09:27:39.070Z,0.52
2023-04-15T09:28:39.572Z,0.51
2023-04-15T09:29:39.145Z,0.52
2023-04-15T09:30:39.355Z,0.52
2023-04-15T09:31:39.145Z,0.52
2023-04-15T09:32:39.225Z,0.55
2023-04-15T09:33:39.217Z,0.52
2023-04-15T09:34:39.334Z,0.52
2023-04-15T09:35:39.226Z,0.52
2023-04-15T09:36:39.283Z,0.52
2023-04-15T09:37:39.298Z,0.53
2023-04-15T09:38:39.305Z,0.51
2023-04-15T09:39:39.343Z,0.53
2023-04-15T09:40:39.306Z,0.52
2023-04-15T09:41:39.315Z,0.52
2023-04-15T09:42:39.371Z,0.51
2023-04-15T09:43:39.419Z,0.51
2023-04-15T09:44:39.400Z,0.52
2023-04-15T09:45:39.456Z,0.54
2023-04-15T09:46:39.415Z,0.53
2023-04-15T09:47:39.566Z,0.52
2023-04-15T09:48:39.461Z,0.52
2023-04-15T09:49:39.518Z,0.52
2023-04-15T09:50:39.539Z,0.53
2023-04-15T09:51:39.553Z,0.51
2023-04-15T09:52:39.520Z,0.50
2023-04-15T09:53:39.606Z,0.52
2023-04-15T09:54:39.586Z,0.52
2023-04-15T09:55:39.594Z,0.52
2023-04-15T09:56:39.630Z,0.53
2023-04-15T09:57:39.654Z,0.52
2023-04-15T09:58:39.640Z,0.52
2023-04-15T09:59:39.724Z,0.52
2023-04-15T10:00:39.677Z,0.55
2023-04-15T10:01:39.751Z,0.53
2023-04-15T10:02:39.994Z,0.53
2023-04-15T10:03:39.843Z,0.52
2023-04-15T10:04:39.832Z,0.53
2023-04-15T10:05:39.800Z,0.52
2023-04-15T10:06:39.830Z,0.53
2023-04-15T10:07:39.843Z,0.52
2023-04-15T10:08:39.839Z,0.52
2023-04-15T10:09:39.918Z,0.53
2023-04-15T10:10:39.887Z,0.52
2023-04-15T10:11:39.936Z,0.53
2023-04-15T10:12:39.934Z,0.52
2023-04-15T10:13:40.007Z,0.51
2023-04-15T10:14:40.060Z,0.51
2023-04-15T10:15:39.997Z,0.53
2023-04-15T10:16:40.044Z,0.53
2023-04-15T10:17:40.073Z,0.51
2023-04-15T10:18:40.105Z,0.51
2023-04-15T10:19:40.107Z,0.52
2023-04-15T10:20:40.140Z,0.52
2023-04-15T10:21:40.157Z,0.53
2023-04-15T10:22:40.171Z,0.52
2023-04-15T10:23:40.173Z,0.51
2023-04-15T10:24:40.192Z,0.52
2023-04-15T10:25:40.239Z,0.51
2023-04-15T10:26:40.255Z,0.51
2023-04-15T10:27:40.241Z,0.52
2023-04-15T10:28:40.277Z,0.53
2023-04-15T10:29:40.301Z,0.52
2023-04-15T10:30:40.304Z,0.51
2023-04-15T10:31:40.362Z,0.51
2023-04-15T10:32:40.504Z,0.51
2023-04-15T10:33:40.427Z,0.51
2023-04-15T10:34:40.398Z,0.52
2023-04-15T10:35:40.427Z,0.51
2023-04-15T10:36:40.412Z,0.53
2023-04-15T10:37:40.449Z,0.55
2023-04-15T10:38:40.477Z,0.54
2023-04-15T10:39:40.466Z,0.53
2023-04-15T10:40:40.475Z,0.54
2023-04-15T10:41:40.508Z,0.55
2023-04-15T10:42:40.507Z,0.55
2023-04-15T10:43:40.525Z,0.56
2023-04-15T10:44:40.601Z,0.53
2023-04-15T10:45:40.535Z,0.52
2023-04-15T10:46:40.652Z,0.53
2023-04-15T10:47:40.572Z,0.55
2023-04-15T10:48:40.644Z,0.55
2023-04-15T10:49:40.626Z,0.55
2023-04-15T10:50:40.608Z,0.54
2023-04-15T10:51:40.627Z,0.54
2023-04-15T10:52:40.630Z,0.54
2023-04-15T10:53:40.622Z,0.53
2023-04-15T10:54:40.644Z,0.55
2023-04-15T10:55:40.660Z,0.54
2023-04-15T10:56:40.656Z,0.53
2023-04-15T10:57:40.602Z,0.54
2023-04-15T10:58:40.666Z,0.53
2023-04-15T10:59:40.672Z,0.55
2023-04-15T11:00:40.662Z,0.55
2023-04-15T11:01:40.754Z,0.55
2023-04-15T11:02:40.892Z,0.53
2023-04-15T11:03:40.799Z,0.53
2023-04-15T11:04:42.585Z,0.54
2023-04-15T11:05:40.666Z,0.54
2023-04-15T11:06:40.739Z,0.51
2023-04-15T11:07:40.743Z,0.53
2023-04-15T11:08:40.743Z,0.53
2023-04-15T11:09:40.756Z,0.54
2023-04-15T11:10:41.081Z,0.54
2023-04-15T11:11:40.760Z,0.53
2023-04-15T11:12:40.775Z,0.52
2023-04-15T11:13:40.773Z,0.52
2023-04-15T11:14:40.760Z,0.52
2023-04-15T11:15:40.756Z,0.53
2023-04-15T11:16:40.874Z,0.53
2023-04-15T11:17:40.771Z,0.55
2023-04-15T11:18:40.746Z,0.54
2023-04-15T11:19:40.717Z,0.52
2023-04-15T11:20:40.777Z,0.52
2023-04-15T11:21:40.788Z,0.51
2023-04-15T11:22:40.778Z,0.51
2023-04-15T11:23:40.795Z,0.53
2023-04-15T11:24:40.762Z,0.51
2023-04-15T11:25:40.791Z,0.51
2023-04-15T11:26:40.850Z,0.52
2023-04-15T11:27:40.776Z,0.53
2023-04-15T11:28:40.731Z,0.52
2023-04-15T11:29:40.719Z,0.52
2023-04-15T11:30:40.766Z,0.51
2023-04-15T11:31:40.773Z,0.51
2023-04-15T11:32:40.770Z,0.54
2023-04-15T11:33:40.732Z,0.54
2023-04-15T11:34:40.748Z,0.52
2023-04-15T11:35:40.839Z,0.53
2023-04-15T11:36:40.778Z,0.55
2023-04-15T11:37:40.811Z,0.53
2023-04-15T11:38:40.780Z,0.53
2023-04-15T11:39:40.805Z,0.54
2023-04-15T11:40:40.832Z,0.55
2023-04-15T11:41:40.880Z,0.54
2023-04-15T11:42:49.511Z,0.55
2023-04-15T11:43:41.806Z,0.55
2023-04-15T11:44:40.843Z,0.55
2023-04-15T11:45:40.854Z,0.55
2023-04-15T11:46:40.813Z,0.54
2023-04-15T11:47:40.813Z,0.53
2023-04-15T11:48:40.803Z,0.52
2023-04-15T11:49:40.764Z,0.53
2023-04-15T11:50:40.864Z,0.53
2023-04-15T11:51:40.808Z,0.54
2023-04-15T11:52:40.766Z,0.54
2023-04-15T11:53:40.794Z,0.54
2023-04-15T11:54:40.766Z,0.54
2023-04-15T11:55:40.829Z,0.55
2023-04-15T11:56:40.711Z,0.55
2023-04-15T11:57:40.726Z,0.53
2023-04-15T11:58:40.742Z,0.54
2023-04-15T11:59:45.179Z,0.54
2023-04-15T12:00:41.722Z,0.54
2023-04-15T12:01:40.708Z,0.55
2023-04-15T12:02:40.881Z,0.53
2023-04-15T12:03:40.919Z,0.53
2023-04-15T12:04:41.014Z,0.52
2023-04-15T12:05:40.656Z,0.53
2023-04-15T12:06:40.677Z,0.54
2023-04-15T12:07:40.629Z,0.52
2023-04-15T12:08:40.648Z,0.51
2023-04-15T12:09:40.665Z,0.50
2023-04-15T12:10:40.667Z,0.51
2023-04-15T12:11:40.711Z,0.51
2023-04-15T12:12:40.620Z,0.52
2023-04-15T12:13:40.688Z,0.53
2023-04-15T12:14:40.679Z,0.53
2023-04-15T12:15:40.628Z,0.52
2023-04-15T12:16:49.247Z,0.51
2023-04-15T12:17:51.678Z,0.51
2023-04-15T12:18:41.645Z,0.51
2023-04-15T12:19:40.662Z,0.52
2023-04-15T12:20:40.800Z,0.52
2023-04-15T12:21:40.700Z,0.52
2023-04-15T12:22:40.633Z,0.53
2023-04-15T12:23:40.598Z,0.52
2023-04-15T12:24:40.664Z,0.53
2023-04-15T12:25:40.669Z,0.53
2023-04-15T12:26:40.600Z,0.53
2023-04-15T12:27:40.602Z,0.52
2023-04-15T12:28:40.570Z,0.52
2023-04-15T12:29:40.596Z,0.54
2023-04-15T12:30:40.612Z,0.56
2023-04-15T12:31:40.750Z,0.54
2023-04-15T12:32:43.356Z,0.52
2023-04-15T12:33:40.629Z,0.55
2023-04-15T12:34:40.596Z,0.55
2023-04-15T12:35:40.564Z,0.54
2023-04-15T12:36:40.529Z,0.56
2023-04-15T12:37:40.613Z,0.56
2023-04-15T12:38:40.578Z,0.55
2023-04-15T12:39:40.553Z,0.55
2023-04-15T12:40:40.568Z,0.53
2023-04-15T12:41:40.511Z,0.52
2023-04-15T12:42:40.519Z,0.51
2023-04-15T12:43:40.517Z,0.52
2023-04-15T12:44:40.565Z,0.51
2023-04-15T12:45:40.488Z,0.52
2023-04-15T12:46:40.513Z,0.52
2023-04-15T12:47:40.523Z,0.50
2023-04-15T12:48:40.516Z,0.50
2023-04-15T12:49:40.468Z,0.51
2023-04-15T12:50:40.483Z,0.51
2023-04-15T12:51:40.478Z,0.53
2023-04-15T12:52:40.433Z,0.55
2023-04-15T12:53:40.447Z,0.54
2023-04-15T12:54:40.458Z,0.53
2023-04-15T12:55:40.565Z,0.52
2023-04-15T12:56:40.409Z,0.51
2023-04-15T12:57:40.473Z,0.52
2023-04-15T12:58:40.428Z,0.54
2023-04-15T12:59:40.442Z,0.54
2023-04-15T13:00:40.381Z,0.52
2023-04-15T13:01:40.422Z,0.53
2023-04-15T13:02:40.482Z,0.53
2023-04-15T13:03:40.619Z,0.53
2023-04-15T13:04:40.457Z,0.53
2023-04-15T13:05:40.364Z,0.54
2023-04-15T13:06:40.364Z,0.53
2023-04-15T13:07:40.341Z,0.50
2023-04-15T13:08:51.198Z,0.50
2023-04-15T13:09:41.369Z,0.50
2023-04-15T13:10:40.664Z,0.51
2023-04-15T13:11:40.378Z,0.52
2023-04-15T13:12:40.310Z,0.53
2023-04-15T13:13:40.296Z,0.57
2023-04-15T13:14:40.333Z,0.58
2023-04-15T13:15:40.337Z,0.56
2023-04-15T13:16:40.383Z,0.54
2023-04-15T13:17:40.321Z,0.52
2023-04-15T13:18:40.319Z,0.52